Val-d'Or Airport
CYVO : now visible

Airfield :











YOU CAN JOIN US ON...

 
LOGIN :

Register | Disclaimer

   EN    FR    IT 

 









Legend :    VFR   Marginal VFR   IFR   Intensive IFR   Very Intensive IFR
Visi :
Ceiling :
>= 8 km
>= 3000ft
5 to 8 km
1000 to 3000 ft
1500m to 5 km
500 to 1000 ft
800 to 1500m
200 to 500 ft
< 800m
< 200 ft
Symbols :   Thunderstorms  Fog  Heavy snow  Heavy precipitations  Wind > 20 kt






- Airport Elevation : 1107 ft
- IATA code : YVO


CYVO - Val-d'Or

CURRENT METAR :
  • 252300Z 20011KT 15SM FEW055 BKN250 BKN270 26/16 A2994 RMK CU2CI4CC1 CC TR SLP144 DENSITY ALT 2700FT

EXPIRED METARs :
  • 252200Z 20008KT 160V230 15SM SCT060 BKN260 26/16 A2995 RMK CU3CI4 SLP146 DENSITY ALT 2600FT
  • 252100Z 23007G15KT 170V250 15SM SCT045 BKN250 25/16 A2995 RMK CU3CS4 SLP147 DENSITY ALT 2600FT

TAF TAF CYVO
Valid from the 26 at 00:00 until the 26 at 12:00 UTC


252330Z 2600/2612 20012KT P6SM FEW050 BKN250
FM260500 VRB03KT P6SM SCT060 BKN200
FM261000 VRB03KT P6SM BKN050 OVC100 RMK NXT FCST BY 260600Z
CZUL FIR / North America



MET'MAP, your aeronautical weather chart ! - Copyright ORBIFLY December 2007 - Disclaimer

ORBIFLY MET'MAP TEAM :

Programming & Development : Alexandra Zaïnal
Concept & original design : Baudouin d'Aumeries
Assistance for programming : Marc-Olivier Méhu
Technical & hardware support : Manuel Goepfert

Contact : metmap@orbifly.com




SOURCES & CREDITS :

   NOAA       Earth
Advisory